createdAt,value
2023-05-01T00:00:12.063Z,99719.63
2023-05-01T00:03:36.273Z,99720.48
2023-05-01T00:06:39.386Z,99723.23
2023-05-01T00:09:42.282Z,99722.56
2023-05-01T00:12:45.035Z,99725.60
2023-05-01T00:15:48.925Z,99724.33
2023-05-01T00:18:52.558Z,99724.70
2023-05-01T00:21:55.265Z,99728.73
2023-05-01T00:24:58.026Z,99729.15
2023-05-01T00:28:00.968Z,99722.20
2023-05-01T00:31:03.937Z,99724.10
2023-05-01T00:34:06.763Z,99731.14
2023-05-01T00:37:09.617Z,99725.98
2023-05-01T00:40:12.600Z,99717.33
2023-05-01T00:43:15.661Z,99718.76
2023-05-01T00:46:19.206Z,99723.75
2023-05-01T00:49:22.114Z,99726.55
2023-05-01T00:52:25.087Z,99721.24
2023-05-01T00:55:28.413Z,99721.48
2023-05-01T00:58:31.543Z,99719.12
2023-05-01T01:04:37.589Z,99727.02
2023-05-01T01:07:55.825Z,99728.88
2023-05-01T01:11:21.639Z,99721.73
2023-05-01T01:14:31.220Z,99720.38
2023-05-01T01:17:53.564Z,99721.39
2023-05-01T01:21:32.180Z,99719.16
2023-05-01T01:24:57.522Z,99718.95
2023-05-01T01:28:27.609Z,99715.52
2023-05-01T01:31:45.882Z,99711.98
2023-05-01T01:34:55.245Z,99714.04
2023-05-01T01:38:07.304Z,99713.77
2023-05-01T01:41:18.030Z,99712.33
2023-05-01T01:44:30.859Z,99710.06
2023-05-01T01:47:35.314Z,99710.16
2023-05-01T01:50:39.235Z,99710.02
2023-05-01T01:53:50.574Z,99715.19
2023-05-01T01:56:58.440Z,99714.20
2023-05-01T02:00:01.181Z,99712.34
2023-05-01T02:03:05.997Z,99715.32
2023-05-01T02:06:11.379Z,99713.60
2023-05-01T02:09:17.104Z,99714.33
2023-05-01T02:12:22.975Z,99718.21
2023-05-01T02:15:28.059Z,99720.40
2023-05-01T02:18:31.642Z,99718.21
2023-05-01T02:21:37.430Z,99713.54
2023-05-01T02:24:43.734Z,99717.20
2023-05-01T02:28:12.424Z,99715.28
2023-05-01T02:31:15.323Z,99713.29
2023-05-01T02:34:18.112Z,99712.14
2023-05-01T02:37:21.273Z,99710.02
2023-05-01T02:40:24.773Z,99703.69
2023-05-01T02:43:31.022Z,99704.30
2023-05-01T02:46:37.455Z,99697.97
2023-05-01T02:49:42.194Z,99699.50
2023-05-01T02:52:46.405Z,99699.46
2023-05-01T02:56:04.464Z,99699.21
2023-05-01T02:59:07.168Z,99699.12
2023-05-01T03:02:09.941Z,99701.21
2023-05-01T03:05:12.689Z,99700.73
2023-05-01T03:08:15.682Z,99701.13
2023-05-01T03:11:18.496Z,99701.58
2023-05-01T03:14:21.215Z,99705.58
2023-05-01T03:17:24.180Z,99703.16
2023-05-01T03:20:27.611Z,99702.09
2023-05-01T03:23:30.681Z,99701.59
2023-05-01T03:26:34.118Z,99701.84
2023-05-01T03:29:39.690Z,99702.48
2023-05-01T03:32:42.445Z,99704.46
2023-05-01T03:36:00.594Z,99702.75
2023-05-01T03:39:04.984Z,99700.31
2023-05-01T03:42:43.090Z,99697.13
2023-05-01T03:45:52.314Z,99698.82
2023-05-01T03:48:55.622Z,99703.79
2023-05-01T03:51:58.635Z,99703.96
2023-05-01T03:55:01.551Z,99704.24
2023-05-01T03:58:17.442Z,99700.79
2023-05-01T04:01:20.642Z,99695.26
2023-05-01T04:04:24.747Z,99697.26
2023-05-01T04:07:31.907Z,99696.50
2023-05-01T04:10:34.715Z,99696.45
2023-05-01T04:13:40.229Z,99691.60
2023-05-01T04:17:51.567Z,99689.29
2023-05-01T04:21:05.839Z,99685.23
2023-05-01T04:24:08.941Z,99683.24
2023-05-01T04:27:11.909Z,99683.34
2023-05-01T04:30:14.702Z,99685.10
2023-05-01T04:33:17.670Z,99683.48
2023-05-01T04:36:21.074Z,99680.23
2023-05-01T04:39:24.213Z,99682.77
2023-05-01T04:42:31.625Z,99686.92
2023-05-01T04:45:34.847Z,99688.59
2023-05-01T04:48:38.084Z,99691.13
2023-05-01T04:51:41.485Z,99691.17
2023-05-01T04:54:45.779Z,99692.61
2023-05-01T04:57:48.910Z,99694.28
2023-05-01T05:00:51.722Z,99694.05
2023-05-01T05:03:57.253Z,99690.75
2023-05-01T05:07:00.496Z,99687.03
2023-05-01T05:10:12.121Z,99694.17
2023-05-01T05:13:15.881Z,99688.46
2023-05-01T05:16:18.943Z,99690.02
2023-05-01T05:19:22.738Z,99690.89
2023-05-01T05:22:26.258Z,99689.77
2023-05-01T05:25:47.903Z,99690.48
2023-05-01T05:28:51.065Z,99690.90
2023-05-01T05:31:54.047Z,99694.55
2023-05-01T05:34:57.433Z,99698.35
2023-05-01T05:38:00.983Z,99687.75
2023-05-01T05:41:04.715Z,99682.84
2023-05-01T05:44:07.598Z,99681.46
2023-05-01T05:47:10.770Z,99673.62
2023-05-01T05:50:13.614Z,99670.87
2023-05-01T05:53:17.122Z,99675.20
2023-05-01T05:56:20.261Z,99677.33
2023-05-01T05:59:23.544Z,99680.27
2023-05-01T06:02:27.075Z,99680.33
2023-05-01T06:05:30.191Z,99685.44
2023-05-01T06:08:35.406Z,99681.31
2023-05-01T06:11:38.507Z,99676.57
2023-05-01T06:14:41.360Z,99682.90
2023-05-01T06:17:45.052Z,99678.01
2023-05-01T06:20:47.908Z,99675.56
2023-05-01T06:23:51.090Z,99675.91
2023-05-01T06:27:04.245Z,99677.20
2023-05-01T06:30:09.397Z,99674.56
2023-05-01T06:33:13.414Z,99668.82
2023-05-01T06:36:16.630Z,99669.95
2023-05-01T06:39:19.606Z,99671.30
2023-05-01T06:42:23.075Z,99663.43
2023-05-01T06:45:26.367Z,99666.95
2023-05-01T06:48:29.205Z,99666.55
2023-05-01T06:51:32.307Z,99665.16
2023-05-01T06:54:35.075Z,99659.54
2023-05-01T06:57:38.083Z,99656.13
2023-05-01T07:00:41.143Z,99657.62
2023-05-01T07:03:44.526Z,99658.00
2023-05-01T07:06:47.466Z,99655.34
2023-05-01T07:09:50.426Z,99653.33
2023-05-01T07:12:53.248Z,99653.88
2023-05-01T07:15:56.100Z,99654.18
2023-05-01T07:18:58.944Z,99655.55
2023-05-01T07:22:01.743Z,99650.89
2023-05-01T07:25:05.082Z,99648.59
2023-05-01T07:28:08.376Z,99649.96
2023-05-01T07:31:11.269Z,99651.35
2023-05-01T07:34:14.220Z,99654.46
2023-05-01T07:37:16.957Z,99652.94
2023-05-01T07:40:19.656Z,99658.98
2023-05-01T07:43:23.130Z,99659.23
2023-05-01T07:46:26.028Z,99663.02
2023-05-01T07:49:28.977Z,99661.52
2023-05-01T07:52:31.745Z,99664.44
2023-05-01T07:55:34.538Z,99660.55
2023-05-01T07:58:37.798Z,99652.73
2023-05-01T08:01:41.658Z,99659.13
2023-05-01T08:04:46.166Z,99660.63
2023-05-01T08:07:49.157Z,99656.16
2023-05-01T08:10:52.392Z,99660.08
2023-05-01T08:13:55.749Z,99659.70
2023-05-01T08:16:58.519Z,99656.10
2023-05-01T08:20:01.539Z,99657.42
2023-05-01T08:23:04.744Z,99660.55
2023-05-01T08:26:07.523Z,99653.27
2023-05-01T08:29:10.337Z,99653.33
2023-05-01T08:32:15.454Z,99653.54
2023-05-01T08:35:18.169Z,99656.96
2023-05-01T08:38:20.942Z,99656.73
2023-05-01T08:41:23.949Z,99654.86
2023-05-01T08:44:28.090Z,99653.44
2023-05-01T08:47:31.774Z,99659.56
2023-05-01T08:50:38.749Z,99657.12
2023-05-01T08:53:43.634Z,99657.75
2023-05-01T08:56:51.426Z,99653.84
2023-05-01T08:59:56.495Z,99649.41
2023-05-01T09:03:02.226Z,99652.23
2023-05-01T09:06:08.051Z,99645.75
2023-05-01T09:09:10.974Z,99644.48
2023-05-01T09:12:21.479Z,99643.71
2023-05-01T09:15:27.049Z,99640.49
2023-05-01T09:18:31.284Z,99637.96
2023-05-01T09:21:34.534Z,99636.98
2023-05-01T09:24:37.619Z,99637.86
2023-05-01T09:27:40.614Z,99633.94
2023-05-01T09:30:43.454Z,99631.49
2023-05-01T09:33:54.919Z,99629.36
2023-05-01T09:36:57.647Z,99628.39
2023-05-01T09:40:10.752Z,99624.67
2023-05-01T09:43:13.706Z,99625.58
2023-05-01T09:46:16.966Z,99622.98
2023-05-01T09:49:19.805Z,99620.13
2023-05-01T09:52:33.730Z,99620.83
2023-05-01T09:55:36.529Z,99612.77
2023-05-01T09:58:39.335Z,99612.42
2023-05-01T10:01:46.526Z,99614.47
2023-05-01T10:04:49.542Z,99611.68
2023-05-01T10:07:57.426Z,99608.76
2023-05-01T10:11:07.717Z,99605.98
2023-05-01T10:14:11.167Z,99599.02
2023-05-01T10:17:21.253Z,99595.53
2023-05-01T10:20:24.681Z,99591.73
2023-05-01T10:23:27.649Z,99585.21
2023-05-01T10:26:30.381Z,99589.85
2023-05-01T10:29:36.815Z,99580.98
2023-05-01T10:32:43.041Z,99580.30
2023-05-01T10:35:56.105Z,99575.89
2023-05-01T10:38:59.230Z,99578.41
2023-05-01T10:42:14.899Z,99573.94
2023-05-01T10:45:36.390Z,99574.75
2023-05-01T10:48:47.985Z,99572.98
2023-05-01T10:51:58.097Z,99569.89
2023-05-01T10:55:35.661Z,99559.77
2023-05-01T10:58:41.288Z,99553.22
2023-05-01T11:01:45.873Z,99548.73
2023-05-01T11:04:53.479Z,99554.00
2023-05-01T11:08:31.652Z,99552.98
2023-05-01T11:11:34.348Z,99545.62
2023-05-01T11:15:05.673Z,99538.67
2023-05-01T11:18:08.963Z,99538.98
2023-05-01T11:21:11.860Z,99534.48
2023-05-01T11:24:14.745Z,99534.30
2023-05-01T11:27:18.283Z,99529.26
2023-05-01T11:30:21.918Z,99526.51
2023-05-01T11:33:26.228Z,99513.66
2023-05-01T11:36:30.723Z,99513.47
2023-05-01T11:39:33.434Z,99510.52
2023-05-01T11:42:36.388Z,99509.37
2023-05-01T11:45:39.278Z,99505.91
2023-05-01T11:48:49.558Z,99495.16
2023-05-01T11:51:59.726Z,99490.72
2023-05-01T11:55:04.057Z,99486.75
2023-05-01T11:58:07.480Z,99480.85
2023-05-01T12:01:12.869Z,99482.29
2023-05-01T12:04:26.490Z,99478.80
2023-05-01T12:07:30.823Z,99471.08
2023-05-01T12:10:35.501Z,99470.80
2023-05-01T12:13:39.841Z,99470.55
2023-05-01T12:16:43.345Z,99465.10
2023-05-01T12:19:48.915Z,99457.67
2023-05-01T12:22:51.958Z,99452.71
2023-05-01T12:25:54.780Z,99451.66
2023-05-01T12:29:01.409Z,99450.86
2023-05-01T12:32:04.349Z,99442.37
2023-05-01T12:35:15.582Z,99441.66
2023-05-01T12:38:23.055Z,99437.36
2023-05-01T12:41:37.897Z,99435.11
2023-05-01T12:44:41.396Z,99429.81
2023-05-01T12:47:45.166Z,99427.09
2023-05-01T12:50:54.645Z,99418.08
2023-05-01T12:53:58.297Z,99415.41
2023-05-01T12:57:09.352Z,99410.59
2023-05-01T13:00:13.322Z,99405.77
2023-05-01T13:03:28.350Z,99396.13
2023-05-01T13:06:36.003Z,99394.58
2023-05-01T13:09:39.454Z,99390.34
2023-05-01T13:12:46.348Z,99387.27
2023-05-01T13:15:49.330Z,99384.93
2023-05-01T13:18:52.797Z,99388.63
2023-05-01T13:21:57.610Z,99374.98
2023-05-01T13:25:03.157Z,99369.15
2023-05-01T13:28:07.797Z,99372.88
2023-05-01T13:31:15.100Z,99370.52
2023-05-01T13:34:24.650Z,99365.55
2023-05-01T13:37:28.372Z,99364.41
2023-05-01T13:40:34.266Z,99365.62
2023-05-01T13:43:37.798Z,99360.16
2023-05-01T13:46:45.392Z,99358.08
2023-05-01T13:49:48.829Z,99352.70
2023-05-01T13:52:51.638Z,99350.98
2023-05-01T13:55:54.501Z,99345.05
2023-05-01T13:58:59.812Z,99336.70
2023-05-01T14:02:13.535Z,99334.97
2023-05-01T14:05:16.898Z,99335.89
2023-05-01T14:08:27.311Z,99325.13
2023-05-01T14:11:30.732Z,99322.30
2023-05-01T14:14:36.319Z,99318.02
2023-05-01T14:17:39.280Z,99314.30
2023-05-01T14:20:46.805Z,99310.86
2023-05-01T14:23:50.547Z,99306.48
2023-05-01T14:26:53.273Z,99305.75
2023-05-01T14:29:56.255Z,99302.77
2023-05-01T14:33:03.806Z,99300.23
2023-05-01T14:36:06.845Z,99294.70
2023-05-01T14:39:10.128Z,99287.21
2023-05-01T14:42:12.867Z,99285.76
2023-05-01T14:45:17.290Z,99277.81
2023-05-01T14:48:25.008Z,99275.91
2023-05-01T14:51:29.321Z,99275.79
2023-05-01T14:54:41.925Z,99279.89
2023-05-01T14:57:45.151Z,99276.38
2023-05-01T15:00:47.852Z,99274.16
2023-05-01T15:03:50.734Z,99280.75
2023-05-01T15:06:53.919Z,99272.98
2023-05-01T15:09:56.794Z,99266.50
2023-05-01T15:12:59.537Z,99267.19
2023-05-01T15:16:03.259Z,99265.11
2023-05-01T15:19:06.169Z,99255.70
2023-05-01T15:22:09.041Z,99257.95
2023-05-01T15:25:11.834Z,99258.36
2023-05-01T15:28:14.775Z,99257.27
2023-05-01T15:31:19.435Z,99250.89
2023-05-01T15:34:22.360Z,99253.62
2023-05-01T15:37:25.557Z,99249.13
2023-05-01T15:40:28.274Z,99252.21
2023-05-01T15:43:31.092Z,99244.30
2023-05-01T15:46:34.637Z,99242.75
2023-05-01T15:49:37.477Z,99235.42
2023-05-01T15:52:40.246Z,99234.08
2023-05-01T15:55:42.952Z,99235.35
2023-05-01T15:58:45.672Z,99234.48
2023-05-01T16:01:48.802Z,99227.73
2023-05-01T16:04:52.832Z,99225.79
2023-05-01T16:07:56.241Z,99223.23
2023-05-01T16:10:59.084Z,99224.36
2023-05-01T16:14:02.347Z,99219.66
2023-05-01T16:17:06.799Z,99216.48
2023-05-01T16:20:14.389Z,99217.44
2023-05-01T16:23:17.489Z,99219.33
2023-05-01T16:26:27.943Z,99216.94
2023-05-01T16:29:35.213Z,99214.21
2023-05-01T16:32:39.701Z,99218.27
2023-05-01T16:35:43.064Z,99217.50
2023-05-01T16:38:46.903Z,99215.71
2023-05-01T16:41:54.168Z,99208.59
2023-05-01T16:44:57.146Z,99209.34
2023-05-01T16:48:00.120Z,99211.02
2023-05-01T16:51:06.100Z,99203.59
2023-05-01T16:54:08.898Z,99199.02
2023-05-01T16:57:11.660Z,99195.70
2023-05-01T17:00:15.960Z,99193.61
2023-05-01T17:03:18.797Z,99195.79
2023-05-01T17:06:21.692Z,99199.70
2023-05-01T17:09:24.554Z,99202.45
2023-05-01T17:12:31.414Z,99202.91
2023-05-01T17:15:34.150Z,99202.87
2023-05-01T17:18:36.865Z,99199.00
2023-05-01T17:21:39.888Z,99200.49
2023-05-01T17:24:42.639Z,99198.83
2023-05-01T17:27:45.577Z,99195.23
2023-05-01T17:30:48.401Z,99194.91
2023-05-01T17:33:51.244Z,99195.55
2023-05-01T17:36:55.265Z,99199.09
2023-05-01T17:40:00.387Z,99192.78
2023-05-01T17:43:03.553Z,99193.27
2023-05-01T17:46:06.551Z,99193.64
2023-05-01T17:49:09.523Z,99190.26
2023-05-01T17:52:12.395Z,99182.41
2023-05-01T17:55:17.945Z,99181.23
2023-05-01T17:58:21.458Z,99183.21
2023-05-01T18:01:24.245Z,99188.30
2023-05-01T18:04:27.045Z,99185.65
2023-05-01T18:07:32.632Z,99182.48
2023-05-01T18:10:35.413Z,99186.36
2023-05-01T18:13:39.780Z,99193.02
2023-05-01T18:16:43.294Z,99195.59
2023-05-01T18:19:46.246Z,99191.36
2023-05-01T18:22:49.041Z,99191.38
2023-05-01T18:25:52.132Z,99190.74
2023-05-01T18:28:55.589Z,99188.84
2023-05-01T18:31:58.716Z,99188.84
2023-05-01T18:35:02.955Z,99191.38
2023-05-01T18:38:05.803Z,99190.30
2023-05-01T18:41:08.592Z,99181.77
2023-05-01T18:44:11.385Z,99182.09
2023-05-01T18:47:14.206Z,99183.80
2023-05-01T18:50:21.591Z,99181.66
2023-05-01T18:53:25.219Z,99179.34
2023-05-01T18:56:28.334Z,99182.30
2023-05-01T18:59:32.092Z,99184.04
2023-05-01T19:02:34.892Z,99183.39
2023-05-01T19:05:37.890Z,99189.88
2023-05-01T19:08:41.270Z,99186.14
2023-05-01T19:11:44.033Z,99189.28
2023-05-01T19:14:47.004Z,99188.71
2023-05-01T19:17:50.044Z,99186.48
2023-05-01T19:20:52.921Z,99182.95
2023-05-01T19:23:56.519Z,99175.58
2023-05-01T19:27:00.521Z,99178.52
2023-05-01T19:30:04.099Z,99176.10
2023-05-01T19:33:07.092Z,99174.94
2023-05-01T19:36:09.937Z,99179.45
2023-05-01T19:39:12.913Z,99185.58
2023-05-01T19:42:16.091Z,99181.08
2023-05-01T19:45:18.885Z,99181.16
2023-05-01T19:48:22.094Z,99177.25
2023-05-01T19:51:24.826Z,99180.84
2023-05-01T19:54:28.574Z,99189.55
2023-05-01T19:57:32.315Z,99193.56
2023-05-01T20:00:35.762Z,99191.59
2023-05-01T20:03:38.824Z,99190.92
2023-05-01T20:06:41.650Z,99190.98
2023-05-01T20:09:44.524Z,99188.34
2023-05-01T20:12:47.550Z,99183.64
2023-05-01T20:15:51.485Z,99184.61
2023-05-01T20:18:54.353Z,99181.02
2023-05-01T20:21:57.073Z,99178.27
2023-05-01T20:24:59.996Z,99175.35
2023-05-01T20:28:03.807Z,99171.59
2023-05-01T20:31:06.674Z,99175.44
2023-05-01T20:34:09.690Z,99174.54
2023-05-01T20:37:12.445Z,99176.30
2023-05-01T20:40:16.558Z,99174.76
2023-05-01T20:43:19.619Z,99179.41
2023-05-01T20:46:23.033Z,99181.33
2023-05-01T20:49:25.902Z,99172.56
2023-05-01T20:52:29.302Z,99172.70
2023-05-01T20:55:32.124Z,99171.23
2023-05-01T20:58:36.259Z,99172.52
2023-05-01T21:01:39.244Z,99173.52
2023-05-01T21:04:43.014Z,99171.78
2023-05-01T21:07:45.844Z,99171.87
2023-05-01T21:10:48.588Z,99174.20
2023-05-01T21:13:51.450Z,99176.83
2023-05-01T21:16:54.920Z,99170.15
2023-05-01T21:19:57.986Z,99178.49
2023-05-01T21:23:02.034Z,99174.54
2023-05-01T21:26:04.827Z,99175.41
2023-05-01T21:29:07.778Z,99175.72
2023-05-01T21:32:10.534Z,99176.81
2023-05-01T21:35:16.670Z,99182.02
2023-05-01T21:38:20.934Z,99181.19
2023-05-01T21:41:24.194Z,99181.17
2023-05-01T21:44:31.044Z,99179.73
2023-05-01T21:47:48.468Z,99175.46
2023-05-01T21:50:51.432Z,99179.52
2023-05-01T21:53:55.596Z,99177.86
2023-05-01T21:56:59.936Z,99178.90
2023-05-01T22:00:04.753Z,99178.45
2023-05-01T22:03:10.981Z,99175.74
2023-05-01T22:06:13.896Z,99174.05
2023-05-01T22:09:16.654Z,99176.17
2023-05-01T22:12:20.157Z,99173.97
2023-05-01T22:15:22.896Z,99168.84
2023-05-01T22:18:26.920Z,99169.75
2023-05-01T22:21:31.800Z,99166.59
2023-05-01T22:24:36.251Z,99163.23
2023-05-01T22:27:39.232Z,99161.83
2023-05-01T22:30:44.328Z,99164.30
2023-05-01T22:33:47.846Z,99158.48
2023-05-01T22:36:50.600Z,99158.02
2023-05-01T22:39:54.006Z,99159.14
2023-05-01T22:42:57.161Z,99155.20
2023-05-01T22:46:00.170Z,99153.24
2023-05-01T22:49:04.300Z,99151.51
2023-05-01T22:52:07.261Z,99149.05
2023-05-01T22:55:10.556Z,99147.83
2023-05-01T22:58:13.303Z,99147.75
2023-05-01T23:01:16.212Z,99146.96
2023-05-01T23:04:19.102Z,99145.23
2023-05-01T23:07:22.299Z,99140.29
2023-05-01T23:10:27.366Z,99139.30
2023-05-01T23:13:32.281Z,99134.38
2023-05-01T23:16:41.634Z,99134.41
2023-05-01T23:19:45.649Z,99134.27
2023-05-01T23:22:48.506Z,99131.17
2023-05-01T23:25:51.318Z,99128.77
2023-05-01T23:28:54.058Z,99125.75
2023-05-01T23:31:57.129Z,99121.98
2023-05-01T23:35:03.798Z,99121.09
2023-05-01T23:38:06.548Z,99118.96
2023-05-01T23:41:09.714Z,99118.08
2023-05-01T23:44:12.602Z,99122.05
2023-05-01T23:47:15.500Z,99120.29
2023-05-01T23:50:18.402Z,99120.41
2023-05-01T23:53:21.396Z,99122.06
2023-05-01T23:56:24.324Z,99120.11
2023-05-01T23:59:27.098Z,99115.94
